sensor_id;sensor_type;location;lat;lon;timestamp;temperature;humidity
1025;DHT22;501;48.214;11.350;2022-08-16T00:00:33;20.80;37.10
1025;DHT22;501;48.214;11.350;2022-08-16T00:03:00;20.80;37.30
1025;DHT22;501;48.214;11.350;2022-08-16T00:05:27;20.80;37.40
1025;DHT22;501;48.214;11.350;2022-08-16T00:07:54;20.80;37.80
1025;DHT22;501;48.214;11.350;2022-08-16T00:10:22;20.70;37.60
1025;DHT22;501;48.214;11.350;2022-08-16T00:12:49;20.70;37.80
1025;DHT22;501;48.214;11.350;2022-08-16T00:15:24;20.70;37.70
1025;DHT22;501;48.214;11.350;2022-08-16T00:17:50;20.70;38.00
1025;DHT22;501;48.214;11.350;2022-08-16T00:20:16;20.70;37.80
1025;DHT22;501;48.214;11.350;2022-08-16T00:22:43;20.70;37.80
1025;DHT22;501;48.214;11.350;2022-08-16T00:25:11;20.70;37.60
1025;DHT22;501;48.214;11.350;2022-08-16T00:27:38;20.60;37.40
1025;DHT22;501;48.214;11.350;2022-08-16T00:30:06;20.60;37.70
1025;DHT22;501;48.214;11.350;2022-08-16T00:32:32;20.60;37.70
1025;DHT22;501;48.214;11.350;2022-08-16T00:34:58;20.60;38.10
1025;DHT22;501;48.214;11.350;2022-08-16T00:37:25;20.60;37.90
1025;DHT22;501;48.214;11.350;2022-08-16T00:39:52;20.50;38.00
1025;DHT22;501;48.214;11.350;2022-08-16T00:42:18;20.50;38.40
1025;DHT22;501;48.214;11.350;2022-08-16T00:44:51;20.50;38.40
1025;DHT22;501;48.214;11.350;2022-08-16T00:47:19;20.50;38.30
1025;DHT22;501;48.214;11.350;2022-08-16T00:49:46;20.50;38.40
1025;DHT22;501;48.214;11.350;2022-08-16T00:52:11;20.50;39.10
1025;DHT22;501;48.214;11.350;2022-08-16T00:54:37;20.50;38.60
1025;DHT22;501;48.214;11.350;2022-08-16T00:57:03;20.50;38.60
1025;DHT22;501;48.214;11.350;2022-08-16T00:59:33;20.50;38.80
1025;DHT22;501;48.214;11.350;2022-08-16T01:02:01;20.40;38.70
1025;DHT22;501;48.214;11.350;2022-08-16T01:04:28;20.40;38.50
1025;DHT22;501;48.214;11.350;2022-08-16T01:06:54;20.40;38.90
1025;DHT22;501;48.214;11.350;2022-08-16T01:09:20;20.40;39.20
1025;DHT22;501;48.214;11.350;2022-08-16T01:11:47;20.40;39.30
1025;DHT22;501;48.214;11.350;2022-08-16T01:14:19;20.30;39.30
1025;DHT22;501;48.214;11.350;2022-08-16T01:16:46;20.30;39.40
1025;DHT22;501;48.214;11.350;2022-08-16T01:19:20;20.30;39.70
1025;DHT22;501;48.214;11.350;2022-08-16T01:24:29;20.20;39.70
1025;DHT22;501;48.214;11.350;2022-08-16T01:27:06;20.20;39.20
1025;DHT22;501;48.214;11.350;2022-08-16T01:29:39;20.20;39.30
1025;DHT22;501;48.214;11.350;2022-08-16T01:32:06;20.20;40.10
1025;DHT22;501;48.214;11.350;2022-08-16T01:34:31;20.10;40.20
1025;DHT22;501;48.214;11.350;2022-08-16T01:37:00;20.10;40.90
1025;DHT22;501;48.214;11.350;2022-08-16T01:39:27;20.10;39.90
1025;DHT22;501;48.214;11.350;2022-08-16T01:41:52;20.00;40.20
1025;DHT22;501;48.214;11.350;2022-08-16T01:44:18;20.00;40.20
1025;DHT22;501;48.214;11.350;2022-08-16T01:46:45;20.00;40.20
1025;DHT22;501;48.214;11.350;2022-08-16T01:49:15;19.90;40.10
1025;DHT22;501;48.214;11.350;2022-08-16T01:51:44;19.90;40.10
1025;DHT22;501;48.214;11.350;2022-08-16T01:54:10;19.90;40.10
1025;DHT22;501;48.214;11.350;2022-08-16T01:56:36;19.80;40.50
1025;DHT22;501;48.214;11.350;2022-08-16T01:59:08;19.80;40.70
1025;DHT22;501;48.214;11.350;2022-08-16T02:01:34;19.70;41.20
1025;DHT22;501;48.214;11.350;2022-08-16T02:04:00;19.70;41.00
1025;DHT22;501;48.214;11.350;2022-08-16T02:06:26;19.60;41.00
1025;DHT22;501;48.214;11.350;2022-08-16T02:08:53;19.60;41.20
1025;DHT22;501;48.214;11.350;2022-08-16T02:11:20;19.60;41.60
1025;DHT22;501;48.214;11.350;2022-08-16T02:13:46;19.50;41.40
1025;DHT22;501;48.214;11.350;2022-08-16T02:16:11;19.50;41.50
1025;DHT22;501;48.214;11.350;2022-08-16T02:18:37;19.50;41.70
1025;DHT22;501;48.214;11.350;2022-08-16T02:21:03;19.40;41.80
1025;DHT22;501;48.214;11.350;2022-08-16T02:23:30;19.30;42.10
1025;DHT22;501;48.214;11.350;2022-08-16T02:25:56;19.20;42.30
1025;DHT22;501;48.214;11.350;2022-08-16T02:28:23;19.20;42.70
1025;DHT22;501;48.214;11.350;2022-08-16T02:30:48;19.10;42.90
1025;DHT22;501;48.214;11.350;2022-08-16T02:33:14;19.10;43.00
1025;DHT22;501;48.214;11.350;2022-08-16T02:35:40;19.00;43.50
1025;DHT22;501;48.214;11.350;2022-08-16T02:38:06;19.00;43.70
1025;DHT22;501;48.214;11.350;2022-08-16T02:40:32;18.90;43.70
1025;DHT22;501;48.214;11.350;2022-08-16T02:42:58;18.80;43.60
1025;DHT22;501;48.214;11.350;2022-08-16T02:45:26;18.80;44.20
1025;DHT22;501;48.214;11.350;2022-08-16T02:47:52;18.70;44.30
1025;DHT22;501;48.214;11.350;2022-08-16T02:50:19;18.60;44.40
1025;DHT22;501;48.214;11.350;2022-08-16T02:52:45;18.60;44.90
1025;DHT22;501;48.214;11.350;2022-08-16T02:55:11;18.50;44.80
1025;DHT22;501;48.214;11.350;2022-08-16T02:57:36;18.50;45.80
1025;DHT22;501;48.214;11.350;2022-08-16T03:00:06;18.40;45.30
1025;DHT22;501;48.214;11.350;2022-08-16T03:02:38;18.40;45.60
1025;DHT22;501;48.214;11.350;2022-08-16T03:05:06;18.30;46.00
1025;DHT22;501;48.214;11.350;2022-08-16T03:07:32;18.30;45.90
1025;DHT22;501;48.214;11.350;2022-08-16T03:09:57;18.20;45.80
1025;DHT22;501;48.214;11.350;2022-08-16T03:12:23;18.20;46.00
1025;DHT22;501;48.214;11.350;2022-08-16T03:14:49;18.10;46.50
1025;DHT22;501;48.214;11.350;2022-08-16T03:17:16;18.10;46.30
1025;DHT22;501;48.214;11.350;2022-08-16T03:19:41;18.10;46.60
1025;DHT22;501;48.214;11.350;2022-08-16T03:22:07;18.00;46.60
1025;DHT22;501;48.214;11.350;2022-08-16T03:24:33;18.00;46.90
1025;DHT22;501;48.214;11.350;2022-08-16T03:27:00;17.90;47.00
1025;DHT22;501;48.214;11.350;2022-08-16T03:29:28;17.90;47.30
1025;DHT22;501;48.214;11.350;2022-08-16T03:31:54;17.90;47.40
1025;DHT22;501;48.214;11.350;2022-08-16T03:34:20;17.80;47.30
1025;DHT22;501;48.214;11.350;2022-08-16T03:36:46;17.80;47.90
1025;DHT22;501;48.214;11.350;2022-08-16T03:39:12;17.80;48.00
1025;DHT22;501;48.214;11.350;2022-08-16T03:41:37;17.70;47.30
1025;DHT22;501;48.214;11.350;2022-08-16T03:44:05;17.70;48.00
1025;DHT22;501;48.214;11.350;2022-08-16T03:46:35;17.70;48.20
1025;DHT22;501;48.214;11.350;2022-08-16T03:49:00;17.60;48.30
1025;DHT22;501;48.214;11.350;2022-08-16T03:51:26;17.60;48.20
1025;DHT22;501;48.214;11.350;2022-08-16T03:53:53;17.50;48.70
1025;DHT22;501;48.214;11.350;2022-08-16T03:56:19;17.50;49.00
1025;DHT22;501;48.214;11.350;2022-08-16T03:58:45;17.50;49.10
1025;DHT22;501;48.214;11.350;2022-08-16T04:01:11;17.40;49.10
1025;DHT22;501;48.214;11.350;2022-08-16T04:03:36;17.40;49.10
1025;DHT22;501;48.214;11.350;2022-08-16T04:06:03;17.40;49.20
1025;DHT22;501;48.214;11.350;2022-08-16T04:08:29;17.40;49.40
1025;DHT22;501;48.214;11.350;2022-08-16T04:10:56;17.30;49.50
1025;DHT22;501;48.214;11.350;2022-08-16T04:13:23;17.30;50.00
1025;DHT22;501;48.214;11.350;2022-08-16T04:15:50;17.30;50.00
1025;DHT22;501;48.214;11.350;2022-08-16T04:18:17;17.30;50.20
1025;DHT22;501;48.214;11.350;2022-08-16T04:20:43;17.20;50.10
1025;DHT22;501;48.214;11.350;2022-08-16T04:23:09;17.20;50.20
1025;DHT22;501;48.214;11.350;2022-08-16T04:25:35;17.20;50.10
1025;DHT22;501;48.214;11.350;2022-08-16T04:28:01;17.20;50.40
1025;DHT22;501;48.214;11.350;2022-08-16T04:30:27;17.20;50.60
1025;DHT22;501;48.214;11.350;2022-08-16T04:32:53;17.20;50.80
1025;DHT22;501;48.214;11.350;2022-08-16T04:35:21;17.10;51.20
1025;DHT22;501;48.214;11.350;2022-08-16T04:37:48;17.10;51.20
1025;DHT22;501;48.214;11.350;2022-08-16T04:40:15;17.10;51.10
1025;DHT22;501;48.214;11.350;2022-08-16T04:42:41;17.10;51.30
1025;DHT22;501;48.214;11.350;2022-08-16T04:45:09;17.10;51.10
1025;DHT22;501;48.214;11.350;2022-08-16T04:47:35;17.10;51.10
1025;DHT22;501;48.214;11.350;2022-08-16T04:50:04;17.10;51.10
1025;DHT22;501;48.214;11.350;2022-08-16T04:52:31;17.20;51.80
1025;DHT22;501;48.214;11.350;2022-08-16T04:54:57;17.20;51.00
1025;DHT22;501;48.214;11.350;2022-08-16T04:57:23;17.20;51.20
1025;DHT22;501;48.214;11.350;2022-08-16T04:59:48;17.20;50.80
1025;DHT22;501;48.214;11.350;2022-08-16T05:02:14;17.30;51.90
1025;DHT22;501;48.214;11.350;2022-08-16T05:04:39;17.30;50.90
1025;DHT22;501;48.214;11.350;2022-08-16T05:07:05;17.30;50.80
1025;DHT22;501;48.214;11.350;2022-08-16T05:09:31;17.30;50.60
1025;DHT22;501;48.214;11.350;2022-08-16T05:11:56;17.40;50.50
1025;DHT22;501;48.214;11.350;2022-08-16T05:14:22;17.40;51.00
1025;DHT22;501;48.214;11.350;2022-08-16T05:16:47;17.40;50.60
1025;DHT22;501;48.214;11.350;2022-08-16T05:19:13;17.50;50.50
1025;DHT22;501;48.214;11.350;2022-08-16T05:21:39;17.50;50.50
1025;DHT22;501;48.214;11.350;2022-08-16T05:24:05;17.50;50.10
1025;DHT22;501;48.214;11.350;2022-08-16T05:26:31;17.60;50.10
1025;DHT22;501;48.214;11.350;2022-08-16T05:28:58;17.60;50.00
1025;DHT22;501;48.214;11.350;2022-08-16T05:31:26;17.70;49.70
1025;DHT22;501;48.214;11.350;2022-08-16T05:33:52;17.70;49.30
1025;DHT22;501;48.214;11.350;2022-08-16T05:36:18;17.80;49.70
1025;DHT22;501;48.214;11.350;2022-08-16T05:38:44;17.80;49.80
1025;DHT22;501;48.214;11.350;2022-08-16T05:41:10;17.90;49.50
1025;DHT22;501;48.214;11.350;2022-08-16T05:43:36;17.90;49.40
1025;DHT22;501;48.214;11.350;2022-08-16T05:46:02;18.00;48.80
1025;DHT22;501;48.214;11.350;2022-08-16T05:48:28;18.00;48.20
1025;DHT22;501;48.214;11.350;2022-08-16T05:50:54;18.10;48.20
1025;DHT22;501;48.214;11.350;2022-08-16T05:53:20;18.10;48.80
1025;DHT22;501;48.214;11.350;2022-08-16T05:55:46;18.20;48.80
1025;DHT22;501;48.214;11.350;2022-08-16T05:58:12;18.20;48.60
1025;DHT22;501;48.214;11.350;2022-08-16T06:00:37;18.30;48.70
1025;DHT22;501;48.214;11.350;2022-08-16T06:03:03;18.30;47.90
1025;DHT22;501;48.214;11.350;2022-08-16T06:05:29;18.40;47.80
1025;DHT22;501;48.214;11.350;2022-08-16T06:07:55;18.50;47.70
1025;DHT22;501;48.214;11.350;2022-08-16T06:10:21;18.50;47.50
1025;DHT22;501;48.214;11.350;2022-08-16T06:12:46;18.60;47.60
1025;DHT22;501;48.214;11.350;2022-08-16T06:15:17;18.60;46.80
1025;DHT22;501;48.214;11.350;2022-08-16T06:17:43;18.70;46.70
1025;DHT22;501;48.214;11.350;2022-08-16T06:20:15;18.80;46.60
1025;DHT22;501;48.214;11.350;2022-08-16T06:22:41;18.80;46.20
1025;DHT22;501;48.214;11.350;2022-08-16T06:25:10;18.90;45.90
1025;DHT22;501;48.214;11.350;2022-08-16T06:27:36;19.00;45.50
1025;DHT22;501;48.214;11.350;2022-08-16T06:30:08;19.00;45.40
1025;DHT22;501;48.214;11.350;2022-08-16T06:32:34;19.20;45.80
1025;DHT22;501;48.214;11.350;2022-08-16T06:35:00;19.20;45.30
1025;DHT22;501;48.214;11.350;2022-08-16T06:37:26;19.30;45.30
1025;DHT22;501;48.214;11.350;2022-08-16T06:39:51;19.40;44.90
1025;DHT22;501;48.214;11.350;2022-08-16T06:42:18;19.50;44.70
1025;DHT22;501;48.214;11.350;2022-08-16T06:44:43;19.50;44.60
1025;DHT22;501;48.214;11.350;2022-08-16T06:47:09;19.60;45.50
1025;DHT22;501;48.214;11.350;2022-08-16T06:49:35;19.70;44.40
1025;DHT22;501;48.214;11.350;2022-08-16T06:52:00;19.70;44.10
1025;DHT22;501;48.214;11.350;2022-08-16T06:54:26;19.80;43.90
1025;DHT22;501;48.214;11.350;2022-08-16T06:56:52;19.90;43.00
1025;DHT22;501;48.214;11.350;2022-08-16T06:59:17;20.00;42.80
1025;DHT22;501;48.214;11.350;2022-08-16T07:01:43;20.00;42.60
1025;DHT22;501;48.214;11.350;2022-08-16T07:04:08;20.10;42.40
1025;DHT22;501;48.214;11.350;2022-08-16T07:06:34;20.20;41.60
1025;DHT22;501;48.214;11.350;2022-08-16T07:09:00;20.30;40.90
1025;DHT22;501;48.214;11.350;2022-08-16T07:11:25;20.40;40.50
1025;DHT22;501;48.214;11.350;2022-08-16T07:13:51;20.40;40.50
1025;DHT22;501;48.214;11.350;2022-08-16T07:16:18;20.50;41.30
1025;DHT22;501;48.214;11.350;2022-08-16T07:18:44;20.60;40.80
1025;DHT22;501;48.214;11.350;2022-08-16T07:21:11;20.60;40.90
1025;DHT22;501;48.214;11.350;2022-08-16T07:23:39;20.70;41.10
1025;DHT22;501;48.214;11.350;2022-08-16T07:26:08;20.80;40.90
1025;DHT22;501;48.214;11.350;2022-08-16T07:28:34;20.90;40.20
1025;DHT22;501;48.214;11.350;2022-08-16T07:31:00;21.00;41.10
1025;DHT22;501;48.214;11.350;2022-08-16T07:33:28;21.00;39.50
1025;DHT22;501;48.214;11.350;2022-08-16T07:35:55;21.10;39.50
1025;DHT22;501;48.214;11.350;2022-08-16T07:38:21;21.10;39.60
1025;DHT22;501;48.214;11.350;2022-08-16T07:40:50;21.20;39.90
1025;DHT22;501;48.214;11.350;2022-08-16T07:43:16;21.20;38.60
1025;DHT22;501;48.214;11.350;2022-08-16T07:45:41;21.30;37.50
1025;DHT22;501;48.214;11.350;2022-08-16T07:48:07;21.40;36.50
1025;DHT22;501;48.214;11.350;2022-08-16T07:50:33;21.50;36.80
1025;DHT22;501;48.214;11.350;2022-08-16T07:52:58;21.50;36.20
1025;DHT22;501;48.214;11.350;2022-08-16T07:55:24;21.60;36.90
1025;DHT22;501;48.214;11.350;2022-08-16T07:57:50;21.60;37.20
1025;DHT22;501;48.214;11.350;2022-08-16T08:00:16;21.70;36.30
1025;DHT22;501;48.214;11.350;2022-08-16T08:02:42;21.70;36.20
1025;DHT22;501;48.214;11.350;2022-08-16T08:05:09;21.80;35.00
1025;DHT22;501;48.214;11.350;2022-08-16T08:07:35;21.80;35.10
1025;DHT22;501;48.214;11.350;2022-08-16T08:10:01;21.90;34.50
1025;DHT22;501;48.214;11.350;2022-08-16T08:12:27;21.90;34.70
1025;DHT22;501;48.214;11.350;2022-08-16T08:14:52;22.00;34.50
1025;DHT22;501;48.214;11.350;2022-08-16T08:17:18;22.00;34.80
1025;DHT22;501;48.214;11.350;2022-08-16T08:19:44;22.10;34.90
1025;DHT22;501;48.214;11.350;2022-08-16T08:22:10;22.10;34.50
1025;DHT22;501;48.214;11.350;2022-08-16T08:24:36;22.20;34.10
1025;DHT22;501;48.214;11.350;2022-08-16T08:27:04;22.30;34.30
1025;DHT22;501;48.214;11.350;2022-08-16T08:29:31;22.30;34.30
1025;DHT22;501;48.214;11.350;2022-08-16T08:31:57;22.40;34.10
1025;DHT22;501;48.214;11.350;2022-08-16T08:34:25;22.40;33.90
1025;DHT22;501;48.214;11.350;2022-08-16T08:36:51;22.50;33.00
1025;DHT22;501;48.214;11.350;2022-08-16T08:39:17;22.50;33.50
1025;DHT22;501;48.214;11.350;2022-08-16T08:41:43;22.60;33.00
1025;DHT22;501;48.214;11.350;2022-08-16T08:44:10;22.60;33.10
1025;DHT22;501;48.214;11.350;2022-08-16T08:46:36;22.60;33.20
1025;DHT22;501;48.214;11.350;2022-08-16T08:49:02;22.70;33.30
1025;DHT22;501;48.214;11.350;2022-08-16T08:51:29;22.70;32.50
1025;DHT22;501;48.214;11.350;2022-08-16T08:53:55;22.80;33.30
1025;DHT22;501;48.214;11.350;2022-08-16T08:56:20;22.80;33.70
1025;DHT22;501;48.214;11.350;2022-08-16T08:58:46;22.90;32.90
1025;DHT22;501;48.214;11.350;2022-08-16T09:01:12;22.90;33.10
1025;DHT22;501;48.214;11.350;2022-08-16T09:03:39;23.00;32.90
1025;DHT22;501;48.214;11.350;2022-08-16T09:06:05;23.00;33.50
1025;DHT22;501;48.214;11.350;2022-08-16T09:08:32;23.10;33.60
1025;DHT22;501;48.214;11.350;2022-08-16T09:10:59;23.20;31.60
1025;DHT22;501;48.214;11.350;2022-08-16T09:13:25;23.20;32.30
1025;DHT22;501;48.214;11.350;2022-08-16T09:15:52;23.30;32.60
1025;DHT22;501;48.214;11.350;2022-08-16T09:18:20;23.30;32.00
1025;DHT22;501;48.214;11.350;2022-08-16T09:20:47;23.40;30.80
1025;DHT22;501;48.214;11.350;2022-08-16T09:23:13;23.50;31.30
1025;DHT22;501;48.214;11.350;2022-08-16T09:25:40;23.50;31.20
1025;DHT22;501;48.214;11.350;2022-08-16T09:28:05;23.50;30.60
1025;DHT22;501;48.214;11.350;2022-08-16T09:30:32;23.60;29.70
1025;DHT22;501;48.214;11.350;2022-08-16T09:33:02;23.60;30.00
1025;DHT22;501;48.214;11.350;2022-08-16T09:35:28;23.60;30.60
1025;DHT22;501;48.214;11.350;2022-08-16T09:37:54;23.70;30.00
1025;DHT22;501;48.214;11.350;2022-08-16T09:40:22;23.70;29.80
1025;DHT22;501;48.214;11.350;2022-08-16T09:42:47;23.70;29.30
1025;DHT22;501;48.214;11.350;2022-08-16T09:45:13;23.80;30.00
1025;DHT22;501;48.214;11.350;2022-08-16T09:47:39;23.90;30.40
1025;DHT22;501;48.214;11.350;2022-08-16T09:50:10;24.00;30.00
1025;DHT22;501;48.214;11.350;2022-08-16T09:52:37;24.10;28.40
1025;DHT22;501;48.214;11.350;2022-08-16T09:55:05;24.20;28.00
1025;DHT22;501;48.214;11.350;2022-08-16T09:57:31;24.30;27.60
1025;DHT22;501;48.214;11.350;2022-08-16T09:59:57;24.40;27.20
1025;DHT22;501;48.214;11.350;2022-08-16T10:02:25;24.40;27.50
1025;DHT22;501;48.214;11.350;2022-08-16T10:04:50;24.50;27.10
1025;DHT22;501;48.214;11.350;2022-08-16T10:07:16;24.60;27.10
1025;DHT22;501;48.214;11.350;2022-08-16T10:09:45;24.60;27.10
1025;DHT22;501;48.214;11.350;2022-08-16T10:12:11;24.60;26.90
1025;DHT22;501;48.214;11.350;2022-08-16T10:14:56;24.60;26.90
1025;DHT22;501;48.214;11.350;2022-08-16T10:17:21;24.60;26.40
1025;DHT22;501;48.214;11.350;2022-08-16T10:19:48;24.60;26.40
1025;DHT22;501;48.214;11.350;2022-08-16T10:22:16;24.70;26.50
1025;DHT22;501;48.214;11.350;2022-08-16T10:24:42;24.80;26.60
1025;DHT22;501;48.214;11.350;2022-08-16T10:27:08;24.80;25.90
1025;DHT22;501;48.214;11.350;2022-08-16T10:29:33;24.80;25.80
1025;DHT22;501;48.214;11.350;2022-08-16T10:31:59;24.90;26.60
1025;DHT22;501;48.214;11.350;2022-08-16T10:34:24;24.90;26.10
1025;DHT22;501;48.214;11.350;2022-08-16T10:36:50;25.00;26.00
1025;DHT22;501;48.214;11.350;2022-08-16T10:39:16;25.00;26.40
1025;DHT22;501;48.214;11.350;2022-08-16T10:41:41;25.00;25.10
1025;DHT22;501;48.214;11.350;2022-08-16T10:44:08;25.10;25.60
1025;DHT22;501;48.214;11.350;2022-08-16T10:46:34;25.20;24.50
1025;DHT22;501;48.214;11.350;2022-08-16T10:49:00;25.20;24.50
1025;DHT22;501;48.214;11.350;2022-08-16T10:51:25;25.30;25.40
1025;DHT22;501;48.214;11.350;2022-08-16T10:53:51;25.40;25.00
1025;DHT22;501;48.214;11.350;2022-08-16T10:56:17;25.60;25.20
1025;DHT22;501;48.214;11.350;2022-08-16T10:58:42;25.60;26.40
1025;DHT22;501;48.214;11.350;2022-08-16T11:01:09;25.70;26.20
1025;DHT22;501;48.214;11.350;2022-08-16T11:03:36;25.80;26.00
1025;DHT22;501;48.214;11.350;2022-08-16T11:06:04;25.90;25.30
1025;DHT22;501;48.214;11.350;2022-08-16T11:08:31;25.90;25.70
1025;DHT22;501;48.214;11.350;2022-08-16T11:10:57;25.90;25.20
1025;DHT22;501;48.214;11.350;2022-08-16T11:13:25;26.00;25.70
1025;DHT22;501;48.214;11.350;2022-08-16T11:15:51;26.00;25.90
1025;DHT22;501;48.214;11.350;2022-08-16T11:18:17;26.10;25.00
1025;DHT22;501;48.214;11.350;2022-08-16T11:20:43;26.30;23.60
1025;DHT22;501;48.214;11.350;2022-08-16T11:23:12;26.30;24.80
1025;DHT22;501;48.214;11.350;2022-08-16T11:25:38;26.40;23.60
1025;DHT22;501;48.214;11.350;2022-08-16T11:28:05;26.50;23.40
1025;DHT22;501;48.214;11.350;2022-08-16T11:30:31;26.60;23.70
1025;DHT22;501;48.214;11.350;2022-08-16T11:32:58;26.80;22.90
1025;DHT22;501;48.214;11.350;2022-08-16T11:35:27;26.90;23.40
1025;DHT22;501;48.214;11.350;2022-08-16T11:38:04;27.00;22.10
1025;DHT22;501;48.214;11.350;2022-08-16T11:40:34;27.10;23.00
1025;DHT22;501;48.214;11.350;2022-08-16T11:43:02;27.20;22.50
1025;DHT22;501;48.214;11.350;2022-08-16T11:45:28;27.40;21.60
1025;DHT22;501;48.214;11.350;2022-08-16T11:47:54;27.70;22.20
1025;DHT22;501;48.214;11.350;2022-08-16T11:50:20;28.00;20.60
1025;DHT22;501;48.214;11.350;2022-08-16T11:52:48;28.30;20.70
1025;DHT22;501;48.214;11.350;2022-08-16T11:55:14;28.60;20.90
1025;DHT22;501;48.214;11.350;2022-08-16T11:57:40;29.00;21.20
1025;DHT22;501;48.214;11.350;2022-08-16T12:00:09;29.30;21.00
1025;DHT22;501;48.214;11.350;2022-08-16T12:02:37;29.70;20.80
1025;DHT22;501;48.214;11.350;2022-08-16T12:05:04;30.10;20.60
1025;DHT22;501;48.214;11.350;2022-08-16T12:07:30;30.60;20.40
1025;DHT22;501;48.214;11.350;2022-08-16T12:09:56;31.00;18.50
1025;DHT22;501;48.214;11.350;2022-08-16T12:12:22;31.40;19.00
1025;DHT22;501;48.214;11.350;2022-08-16T12:14:48;31.80;17.50
1025;DHT22;501;48.214;11.350;2022-08-16T12:17:13;32.10;18.30
1025;DHT22;501;48.214;11.350;2022-08-16T12:19:40;32.50;16.60
1025;DHT22;501;48.214;11.350;2022-08-16T12:22:06;32.80;15.40
1025;DHT22;501;48.214;11.350;2022-08-16T12:24:32;33.10;17.20
1025;DHT22;501;48.214;11.350;2022-08-16T12:26:59;33.30;15.40
1025;DHT22;501;48.214;11.350;2022-08-16T12:29:25;33.60;14.40
1025;DHT22;501;48.214;11.350;2022-08-16T12:31:52;33.80;14.80
1025;DHT22;501;48.214;11.350;2022-08-16T12:34:18;34.00;14.90
1025;DHT22;501;48.214;11.350;2022-08-16T12:36:44;34.20;13.40
1025;DHT22;501;48.214;11.350;2022-08-16T12:39:11;34.40;13.60
1025;DHT22;501;48.214;11.350;2022-08-16T12:41:38;34.60;12.90
1025;DHT22;501;48.214;11.350;2022-08-16T12:44:07;34.80;12.30
1025;DHT22;501;48.214;11.350;2022-08-16T12:46:32;34.90;12.20
1025;DHT22;501;48.214;11.350;2022-08-16T12:49:00;35.00;12.00
1025;DHT22;501;48.214;11.350;2022-08-16T12:51:29;35.00;11.80
1025;DHT22;501;48.214;11.350;2022-08-16T12:53:57;35.10;12.60
1025;DHT22;501;48.214;11.350;2022-08-16T12:56:27;35.10;12.40
1025;DHT22;501;48.214;11.350;2022-08-16T12:58:55;35.10;12.40
1025;DHT22;501;48.214;11.350;2022-08-16T13:01:24;35.30;12.50
1025;DHT22;501;48.214;11.350;2022-08-16T13:03:52;35.40;11.80
1025;DHT22;501;48.214;11.350;2022-08-16T13:06:24;35.50;12.60
1025;DHT22;501;48.214;11.350;2022-08-16T13:08:52;35.60;13.90
1025;DHT22;501;48.214;11.350;2022-08-16T13:11:27;35.80;11.40
1025;DHT22;501;48.214;11.350;2022-08-16T13:13:53;35.90;11.50
1025;DHT22;501;48.214;11.350;2022-08-16T13:16:19;36.00;12.90
1025;DHT22;501;48.214;11.350;2022-08-16T13:18:45;36.20;12.30
1025;DHT22;501;48.214;11.350;2022-08-16T13:21:11;36.20;10.90
1025;DHT22;501;48.214;11.350;2022-08-16T13:23:37;36.30;13.00
1025;DHT22;501;48.214;11.350;2022-08-16T13:26:04;36.40;12.90
1025;DHT22;501;48.214;11.350;2022-08-16T13:28:30;36.50;11.20
1025;DHT22;501;48.214;11.350;2022-08-16T13:30:57;36.40;10.70
1025;DHT22;501;48.214;11.350;2022-08-16T13:33:26;36.00;11.80
1025;DHT22;501;48.214;11.350;2022-08-16T13:35:57;35.60;11.40
1025;DHT22;501;48.214;11.350;2022-08-16T13:38:23;35.30;12.50
1025;DHT22;501;48.214;11.350;2022-08-16T13:40:49;35.20;13.10
1025;DHT22;501;48.214;11.350;2022-08-16T13:43:16;35.10;12.70
1025;DHT22;501;48.214;11.350;2022-08-16T13:45:42;34.80;13.40
1025;DHT22;501;48.214;11.350;2022-08-16T13:48:08;34.80;12.40
1025;DHT22;501;48.214;11.350;2022-08-16T13:50:34;34.90;13.00
1025;DHT22;501;48.214;11.350;2022-08-16T13:53:01;35.10;13.30
1025;DHT22;501;48.214;11.350;2022-08-16T13:55:28;35.30;12.50
1025;DHT22;501;48.214;11.350;2022-08-16T13:57:54;35.30;12.50
1025;DHT22;501;48.214;11.350;2022-08-16T14:00:20;35.20;12.40
1025;DHT22;501;48.214;11.350;2022-08-16T14:02:46;35.20;12.50
1025;DHT22;501;48.214;11.350;2022-08-16T14:05:13;35.20;12.40
1025;DHT22;501;48.214;11.350;2022-08-16T14:07:39;35.30;12.50
1025;DHT22;501;48.214;11.350;2022-08-16T14:10:07;35.30;12.50
1025;DHT22;501;48.214;11.350;2022-08-16T14:12:34;35.40;13.10
1025;DHT22;501;48.214;11.350;2022-08-16T14:15:01;35.60;12.80
1025;DHT22;501;48.214;11.350;2022-08-16T14:17:28;35.80;12.80
1025;DHT22;501;48.214;11.350;2022-08-16T14:19:54;35.90;11.90
1025;DHT22;501;48.214;11.350;2022-08-16T14:22:28;35.90;11.90
1025;DHT22;501;48.214;11.350;2022-08-16T14:24:55;35.90;11.60
1025;DHT22;501;48.214;11.350;2022-08-16T14:27:23;35.90;11.10
1025;DHT22;501;48.214;11.350;2022-08-16T14:29:51;35.80;11.30
1025;DHT22;501;48.214;11.350;2022-08-16T14:32:19;35.70;12.00
1025;DHT22;501;48.214;11.350;2022-08-16T14:34:45;35.70;12.30
1025;DHT22;501;48.214;11.350;2022-08-16T14:37:11;35.60;12.20
1025;DHT22;501;48.214;11.350;2022-08-16T14:39:37;35.60;11.60
1025;DHT22;501;48.214;11.350;2022-08-16T14:42:12;35.60;12.10
1025;DHT22;501;48.214;11.350;2022-08-16T14:44:38;35.50;11.40
1025;DHT22;501;48.214;11.350;2022-08-16T14:47:05;35.40;11.00
1025;DHT22;501;48.214;11.350;2022-08-16T14:49:33;35.20;11.60
1025;DHT22;501;48.214;11.350;2022-08-16T14:52:01;35.10;12.10
1025;DHT22;501;48.214;11.350;2022-08-16T14:54:27;35.10;12.60
1025;DHT22;501;48.214;11.350;2022-08-16T14:56:53;35.10;12.30
1025;DHT22;501;48.214;11.350;2022-08-16T14:59:18;35.10;11.90
1025;DHT22;501;48.214;11.350;2022-08-16T15:01:44;34.90;12.30
1025;DHT22;501;48.214;11.350;2022-08-16T15:04:10;34.90;11.80
1025;DHT22;501;48.214;11.350;2022-08-16T15:06:37;34.90;12.30
1025;DHT22;501;48.214;11.350;2022-08-16T15:09:03;34.90;11.70
1025;DHT22;501;48.214;11.350;2022-08-16T15:11:28;34.90;12.90
1025;DHT22;501;48.214;11.350;2022-08-16T15:13:55;35.10;12.70
1025;DHT22;501;48.214;11.350;2022-08-16T15:16:21;35.20;12.30
1025;DHT22;501;48.214;11.350;2022-08-16T15:18:46;35.20;11.90
1025;DHT22;501;48.214;11.350;2022-08-16T15:21:12;35.20;11.90
1025;DHT22;501;48.214;11.350;2022-08-16T15:23:38;35.10;12.40
1025;DHT22;501;48.214;11.350;2022-08-16T15:26:03;35.10;12.40
1025;DHT22;501;48.214;11.350;2022-08-16T15:28:31;35.10;11.70
1025;DHT22;501;48.214;11.350;2022-08-16T15:30:57;34.90;12.30
1025;DHT22;501;48.214;11.350;2022-08-16T15:33:22;34.70;12.20
1025;DHT22;501;48.214;11.350;2022-08-16T15:35:50;34.60;12.80
1025;DHT22;501;48.214;11.350;2022-08-16T15:38:17;34.60;12.40
1025;DHT22;501;48.214;11.350;2022-08-16T15:40:43;34.50;13.10
1025;DHT22;501;48.214;11.350;2022-08-16T15:43:09;34.50;13.10
1025;DHT22;501;48.214;11.350;2022-08-16T15:45:36;34.50;13.20
1025;DHT22;501;48.214;11.350;2022-08-16T15:48:20;34.50;12.10
1025;DHT22;501;48.214;11.350;2022-08-16T15:50:46;34.40;13.10
1025;DHT22;501;48.214;11.350;2022-08-16T15:53:19;34.40;12.00
1025;DHT22;501;48.214;11.350;2022-08-16T15:55:47;34.20;12.50
1025;DHT22;501;48.214;11.350;2022-08-16T15:58:13;34.20;13.00
1025;DHT22;501;48.214;11.350;2022-08-16T16:00:41;34.10;13.10